sensor_id;sensor_type;location;lat;lon;timestamp;P1;durP1;ratioP1;P2;durP2;ratioP2
15629;SDS011;7914;50.842;0.166;2022-11-20T00:00:50;0.90;;;0.90;;
15629;SDS011;7914;50.842;0.166;2022-11-20T00:03:16;1.00;;;1.00;;
15629;SDS011;7914;50.842;0.166;2022-11-20T00:05:42;0.90;;;0.90;;
15629;SDS011;7914;50.842;0.166;2022-11-20T00:08:08;0.80;;;0.80;;
15629;SDS011;7914;50.842;0.166;2022-11-20T00:10:41;0.90;;;0.90;;
15629;SDS011;7914;50.842;0.166;2022-11-20T00:13:07;0.90;;;0.90;;
15629;SDS011;7914;50.842;0.166;2022-11-20T00:15:33;0.93;;;0.93;;
15629;SDS011;7914;50.842;0.166;2022-11-20T00:17:59;0.90;;;0.90;;
15629;SDS011;7914;50.842;0.166;2022-11-20T00:20:25;0.90;;;0.90;;
15629;SDS011;7914;50.842;0.166;2022-11-20T00:22:50;1.00;;;1.00;;
15629;SDS011;7914;50.842;0.166;2022-11-20T00:25:16;0.90;;;0.90;;
15629;SDS011;7914;50.842;0.166;2022-11-20T00:27:42;0.90;;;0.90;;
15629;SDS011;7914;50.842;0.166;2022-11-20T00:30:08;0.90;;;0.90;;
15629;SDS011;7914;50.842;0.166;2022-11-20T00:32:34;1.00;;;1.00;;
15629;SDS011;7914;50.842;0.166;2022-11-20T00:35:00;0.90;;;0.90;;
15629;SDS011;7914;50.842;0.166;2022-11-20T00:37:25;1.00;;;1.00;;
15629;SDS011;7914;50.842;0.166;2022-11-20T00:39:51;0.90;;;0.90;;
15629;SDS011;7914;50.842;0.166;2022-11-20T00:42:17;0.90;;;0.90;;
15629;SDS011;7914;50.842;0.166;2022-11-20T00:44:42;0.87;;;0.87;;
15629;SDS011;7914;50.842;0.166;2022-11-20T00:47:08;0.90;;;0.90;;
15629;SDS011;7914;50.842;0.166;2022-11-20T00:49:34;0.90;;;0.90;;
15629;SDS011;7914;50.842;0.166;2022-11-20T00:52:00;0.90;;;0.90;;
15629;SDS011;7914;50.842;0.166;2022-11-20T00:54:25;0.90;;;0.90;;
15629;SDS011;7914;50.842;0.166;2022-11-20T00:56:54;1.17;;;1.17;;
15629;SDS011;7914;50.842;0.166;2022-11-20T00:59:20;0.90;;;0.90;;
15629;SDS011;7914;50.842;0.166;2022-11-20T01:01:45;1.00;;;1.00;;
15629;SDS011;7914;50.842;0.166;2022-11-20T01:04:11;1.00;;;1.00;;
15629;SDS011;7914;50.842;0.166;2022-11-20T01:06:38;0.90;;;0.90;;
15629;SDS011;7914;50.842;0.166;2022-11-20T01:09:13;0.90;;;0.90;;
15629;SDS011;7914;50.842;0.166;2022-11-20T01:11:40;1.10;;;1.10;;
15629;SDS011;7914;50.842;0.166;2022-11-20T01:14:13;1.00;;;1.00;;
15629;SDS011;7914;50.842;0.166;2022-11-20T01:16:41;1.00;;;1.00;;
15629;SDS011;7914;50.842;0.166;2022-11-20T01:19:10;1.20;;;1.20;;
15629;SDS011;7914;50.842;0.166;2022-11-20T01:21:39;1.13;;;1.13;;
15629;SDS011;7914;50.842;0.166;2022-11-20T01:24:07;1.10;;;1.10;;
15629;SDS011;7914;50.842;0.166;2022-11-20T01:26:36;1.20;;;1.20;;
15629;SDS011;7914;50.842;0.166;2022-11-20T01:29:03;1.27;;;1.27;;
15629;SDS011;7914;50.842;0.166;2022-11-20T01:31:34;1.00;;;1.00;;
15629;SDS011;7914;50.842;0.166;2022-11-20T01:34:02;1.00;;;1.00;;
15629;SDS011;7914;50.842;0.166;2022-11-20T01:36:30;1.10;;;1.10;;
15629;SDS011;7914;50.842;0.166;2022-11-20T01:38:58;1.10;;;1.10;;
15629;SDS011;7914;50.842;0.166;2022-11-20T01:41:26;1.13;;;1.13;;
15629;SDS011;7914;50.842;0.166;2022-11-20T01:44:13;1.00;;;1.00;;
15629;SDS011;7914;50.842;0.166;2022-11-20T01:46:42;1.00;;;1.00;;
15629;SDS011;7914;50.842;0.166;2022-11-20T01:52:07;1.10;;;1.10;;
15629;SDS011;7914;50.842;0.166;2022-11-20T01:54:44;1.20;;;1.20;;
15629;SDS011;7914;50.842;0.166;2022-11-20T01:57:19;1.10;;;1.10;;
15629;SDS011;7914;50.842;0.166;2022-11-20T01:59:49;1.00;;;1.00;;
15629;SDS011;7914;50.842;0.166;2022-11-20T02:02:21;1.00;;;1.00;;
15629;SDS011;7914;50.842;0.166;2022-11-20T02:04:48;1.00;;;1.00;;
15629;SDS011;7914;50.842;0.166;2022-11-20T02:07:16;0.93;;;0.93;;
15629;SDS011;7914;50.842;0.166;2022-11-20T02:09:43;1.00;;;1.00;;
15629;SDS011;7914;50.842;0.166;2022-11-20T02:12:09;1.10;;;1.10;;
15629;SDS011;7914;50.842;0.166;2022-11-20T02:14:56;1.30;;;1.30;;
15629;SDS011;7914;50.842;0.166;2022-11-20T02:17:22;1.27;;;1.27;;
15629;SDS011;7914;50.842;0.166;2022-11-20T02:19:49;1.20;;;1.20;;
15629;SDS011;7914;50.842;0.166;2022-11-20T02:22:18;1.40;;;1.40;;
15629;SDS011;7914;50.842;0.166;2022-11-20T02:24:55;1.60;;;1.60;;
15629;SDS011;7914;50.842;0.166;2022-11-20T02:27:24;1.47;;;1.47;;
15629;SDS011;7914;50.842;0.166;2022-11-20T02:29:52;1.43;;;1.43;;
15629;SDS011;7914;50.842;0.166;2022-11-20T02:32:25;1.60;;;1.60;;
15629;SDS011;7914;50.842;0.166;2022-11-20T02:34:51;1.50;;;1.50;;
15629;SDS011;7914;50.842;0.166;2022-11-20T02:37:16;1.60;;;1.60;;
15629;SDS011;7914;50.842;0.166;2022-11-20T02:39:44;1.60;;;1.60;;
15629;SDS011;7914;50.842;0.166;2022-11-20T02:42:12;1.70;;;1.70;;
15629;SDS011;7914;50.842;0.166;2022-11-20T02:44:38;1.50;;;1.50;;
15629;SDS011;7914;50.842;0.166;2022-11-20T02:47:03;1.70;;;1.70;;
15629;SDS011;7914;50.842;0.166;2022-11-20T02:49:29;1.63;;;1.63;;
15629;SDS011;7914;50.842;0.166;2022-11-20T02:51:55;1.57;;;1.57;;
15629;SDS011;7914;50.842;0.166;2022-11-20T02:54:21;1.60;;;1.60;;
15629;SDS011;7914;50.842;0.166;2022-11-20T02:56:46;1.80;;;1.80;;
15629;SDS011;7914;50.842;0.166;2022-11-20T02:59:12;1.80;;;1.80;;
15629;SDS011;7914;50.842;0.166;2022-11-20T03:01:38;1.80;;;1.80;;
15629;SDS011;7914;50.842;0.166;2022-11-20T03:04:03;2.00;;;1.90;;
15629;SDS011;7914;50.842;0.166;2022-11-20T03:06:29;1.70;;;1.70;;
15629;SDS011;7914;50.842;0.166;2022-11-20T03:08:55;2.00;;;1.90;;
15629;SDS011;7914;50.842;0.166;2022-11-20T03:11:21;1.67;;;1.67;;
15629;SDS011;7914;50.842;0.166;2022-11-20T03:13:47;1.97;;;1.90;;
15629;SDS011;7914;50.842;0.166;2022-11-20T03:16:13;1.70;;;1.70;;
15629;SDS011;7914;50.842;0.166;2022-11-20T03:18:41;2.10;;;2.00;;
15629;SDS011;7914;50.842;0.166;2022-11-20T03:21:08;2.17;;;2.07;;
15629;SDS011;7914;50.842;0.166;2022-11-20T03:23:35;2.40;;;2.30;;
15629;SDS011;7914;50.842;0.166;2022-11-20T03:26:11;2.07;;;1.97;;
15629;SDS011;7914;50.842;0.166;2022-11-20T03:28:49;2.07;;;1.97;;
15629;SDS011;7914;50.842;0.166;2022-11-20T03:31:17;2.10;;;2.00;;
15629;SDS011;7914;50.842;0.166;2022-11-20T03:33:45;2.30;;;2.20;;
15629;SDS011;7914;50.842;0.166;2022-11-20T03:36:11;2.30;;;2.20;;
15629;SDS011;7914;50.842;0.166;2022-11-20T03:38:39;2.10;;;2.00;;
15629;SDS011;7914;50.842;0.166;2022-11-20T03:41:09;2.53;;;2.43;;
15629;SDS011;7914;50.842;0.166;2022-11-20T03:43:37;2.30;;;2.20;;
15629;SDS011;7914;50.842;0.166;2022-11-20T03:46:04;2.20;;;2.10;;
15629;SDS011;7914;50.842;0.166;2022-11-20T03:48:30;2.10;;;2.00;;
15629;SDS011;7914;50.842;0.166;2022-11-20T03:51:09;2.33;;;2.23;;
15629;SDS011;7914;50.842;0.166;2022-11-20T03:53:37;2.30;;;2.20;;
15629;SDS011;7914;50.842;0.166;2022-11-20T03:56:03;2.60;;;2.50;;
15629;SDS011;7914;50.842;0.166;2022-11-20T03:58:29;2.87;;;2.77;;
15629;SDS011;7914;50.842;0.166;2022-11-20T04:00:55;2.93;;;2.83;;
15629;SDS011;7914;50.842;0.166;2022-11-20T04:03:21;2.97;;;2.87;;
15629;SDS011;7914;50.842;0.166;2022-11-20T04:05:46;2.73;;;2.63;;
15629;SDS011;7914;50.842;0.166;2022-11-20T04:08:12;2.97;;;2.87;;
15629;SDS011;7914;50.842;0.166;2022-11-20T04:10:38;2.90;;;2.80;;
15629;SDS011;7914;50.842;0.166;2022-11-20T04:13:03;3.20;;;3.10;;
15629;SDS011;7914;50.842;0.166;2022-11-20T04:15:29;3.30;;;3.20;;
15629;SDS011;7914;50.842;0.166;2022-11-20T04:17:55;3.17;;;3.07;;
15629;SDS011;7914;50.842;0.166;2022-11-20T04:20:20;3.50;;;3.40;;
15629;SDS011;7914;50.842;0.166;2022-11-20T04:22:46;3.10;;;3.00;;
15629;SDS011;7914;50.842;0.166;2022-11-20T04:25:12;3.43;;;3.33;;
15629;SDS011;7914;50.842;0.166;2022-11-20T04:27:38;3.63;;;3.53;;
15629;SDS011;7914;50.842;0.166;2022-11-20T04:30:03;3.37;;;3.27;;
15629;SDS011;7914;50.842;0.166;2022-11-20T04:32:30;3.40;;;3.30;;
15629;SDS011;7914;50.842;0.166;2022-11-20T04:34:55;3.50;;;3.40;;
15629;SDS011;7914;50.842;0.166;2022-11-20T04:37:21;4.10;;;4.00;;
15629;SDS011;7914;50.842;0.166;2022-11-20T04:39:47;3.60;;;3.50;;
15629;SDS011;7914;50.842;0.166;2022-11-20T04:42:12;3.70;;;3.60;;
15629;SDS011;7914;50.842;0.166;2022-11-20T04:44:53;3.90;;;3.80;;
15629;SDS011;7914;50.842;0.166;2022-11-20T04:47:19;3.70;;;3.60;;
15629;SDS011;7914;50.842;0.166;2022-11-20T04:49:45;3.43;;;3.33;;
15629;SDS011;7914;50.842;0.166;2022-11-20T04:52:10;3.77;;;3.67;;
15629;SDS011;7914;50.842;0.166;2022-11-20T04:54:36;3.77;;;3.67;;
15629;SDS011;7914;50.842;0.166;2022-11-20T04:57:02;3.50;;;3.40;;
15629;SDS011;7914;50.842;0.166;2022-11-20T04:59:27;3.93;;;3.83;;
15629;SDS011;7914;50.842;0.166;2022-11-20T05:01:53;3.80;;;3.70;;
15629;SDS011;7914;50.842;0.166;2022-11-20T05:04:19;3.90;;;3.80;;
15629;SDS011;7914;50.842;0.166;2022-11-20T05:06:44;3.37;;;3.27;;
15629;SDS011;7914;50.842;0.166;2022-11-20T05:09:11;3.73;;;3.63;;
15629;SDS011;7914;50.842;0.166;2022-11-20T05:11:37;3.67;;;3.57;;
15629;SDS011;7914;50.842;0.166;2022-11-20T05:14:03;3.47;;;3.37;;
15629;SDS011;7914;50.842;0.166;2022-11-20T05:16:29;4.17;;;4.07;;
15629;SDS011;7914;50.842;0.166;2022-11-20T05:18:55;3.50;;;3.40;;
15629;SDS011;7914;50.842;0.166;2022-11-20T05:21:21;4.57;;;4.37;;
15629;SDS011;7914;50.842;0.166;2022-11-20T05:23:47;4.70;;;4.50;;
15629;SDS011;7914;50.842;0.166;2022-11-20T05:26:22;4.97;;;4.77;;
15629;SDS011;7914;50.842;0.166;2022-11-20T05:28:49;4.07;;;3.97;;
15629;SDS011;7914;50.842;0.166;2022-11-20T05:31:16;4.63;;;4.43;;
15629;SDS011;7914;50.842;0.166;2022-11-20T05:33:44;4.50;;;4.30;;
15629;SDS011;7914;50.842;0.166;2022-11-20T05:36:10;4.57;;;4.37;;
15629;SDS011;7914;50.842;0.166;2022-11-20T05:38:37;4.43;;;4.23;;
15629;SDS011;7914;50.842;0.166;2022-11-20T05:41:04;5.10;;;4.90;;
15629;SDS011;7914;50.842;0.166;2022-11-20T05:43:31;5.17;;;4.97;;
15629;SDS011;7914;50.842;0.166;2022-11-20T05:46:01;5.47;;;5.27;;
15629;SDS011;7914;50.842;0.166;2022-11-20T05:48:27;5.43;;;5.23;;
15629;SDS011;7914;50.842;0.166;2022-11-20T05:50:53;5.60;;;5.40;;
15629;SDS011;7914;50.842;0.166;2022-11-20T05:53:19;5.07;;;4.87;;
15629;SDS011;7914;50.842;0.166;2022-11-20T05:55:44;5.90;;;5.70;;
15629;SDS011;7914;50.842;0.166;2022-11-20T05:58:10;5.20;;;5.00;;
15629;SDS011;7914;50.842;0.166;2022-11-20T06:00:36;5.80;;;5.60;;
15629;SDS011;7914;50.842;0.166;2022-11-20T06:03:01;5.73;;;5.53;;
15629;SDS011;7914;50.842;0.166;2022-11-20T06:05:27;6.20;;;6.00;;
15629;SDS011;7914;50.842;0.166;2022-11-20T06:07:53;6.00;;;5.80;;
15629;SDS011;7914;50.842;0.166;2022-11-20T06:10:19;6.80;;;6.50;;
15629;SDS011;7914;50.842;0.166;2022-11-20T06:12:44;7.63;;;7.33;;
15629;SDS011;7914;50.842;0.166;2022-11-20T06:15:10;7.67;;;7.37;;
15629;SDS011;7914;50.842;0.166;2022-11-20T06:17:36;9.13;;;8.73;;
15629;SDS011;7914;50.842;0.166;2022-11-20T06:20:01;9.07;;;8.67;;
15629;SDS011;7914;50.842;0.166;2022-11-20T06:22:27;9.07;;;8.67;;
15629;SDS011;7914;50.842;0.166;2022-11-20T06:24:53;9.57;;;9.17;;
15629;SDS011;7914;50.842;0.166;2022-11-20T06:27:19;10.23;;;9.83;;
15629;SDS011;7914;50.842;0.166;2022-11-20T06:29:44;10.23;;;9.83;;
15629;SDS011;7914;50.842;0.166;2022-11-20T06:32:10;11.53;;;11.03;;
15629;SDS011;7914;50.842;0.166;2022-11-20T06:34:36;12.23;;;11.73;;
15629;SDS011;7914;50.842;0.166;2022-11-20T06:37:02;12.50;;;12.00;;
15629;SDS011;7914;50.842;0.166;2022-11-20T06:39:27;13.10;;;12.50;;
15629;SDS011;7914;50.842;0.166;2022-11-20T06:41:53;12.83;;;12.23;;
15629;SDS011;7914;50.842;0.166;2022-11-20T06:44:19;13.87;;;13.27;;
15629;SDS011;7914;50.842;0.166;2022-11-20T06:46:44;13.37;;;12.77;;
15629;SDS011;7914;50.842;0.166;2022-11-20T06:49:10;13.70;;;13.10;;
15629;SDS011;7914;50.842;0.166;2022-11-20T06:51:36;16.70;;;15.90;;
15629;SDS011;7914;50.842;0.166;2022-11-20T06:54:01;16.03;;;15.33;;
15629;SDS011;7914;50.842;0.166;2022-11-20T06:56:27;14.87;;;14.17;;
15629;SDS011;7914;50.842;0.166;2022-11-20T06:58:53;14.90;;;14.20;;
15629;SDS011;7914;50.842;0.166;2022-11-20T07:01:18;15.20;;;14.50;;
15629;SDS011;7914;50.842;0.166;2022-11-20T07:03:44;14.67;;;13.97;;
15629;SDS011;7914;50.842;0.166;2022-11-20T07:06:10;15.73;;;15.03;;
15629;SDS011;7914;50.842;0.166;2022-11-20T07:08:36;16.70;;;15.90;;
15629;SDS011;7914;50.842;0.166;2022-11-20T07:11:03;14.73;;;14.03;;
15629;SDS011;7914;50.842;0.166;2022-11-20T07:13:30;15.57;;;14.87;;
15629;SDS011;7914;50.842;0.166;2022-11-20T07:16:00;16.50;;;15.70;;
15629;SDS011;7914;50.842;0.166;2022-11-20T07:18:30;15.90;;;15.20;;
15629;SDS011;7914;50.842;0.166;2022-11-20T07:20:59;16.37;;;15.60;;
15629;SDS011;7914;50.842;0.166;2022-11-20T07:23:30;18.43;;;17.53;;
15629;SDS011;7914;50.842;0.166;2022-11-20T07:25:56;19.93;;;18.93;;
15629;SDS011;7914;50.842;0.166;2022-11-20T07:28:21;18.80;;;17.90;;
15629;SDS011;7914;50.842;0.166;2022-11-20T07:30:51;19.30;;;18.40;;
15629;SDS011;7914;50.842;0.166;2022-11-20T07:33:18;18.47;;;17.57;;
15629;SDS011;7914;50.842;0.166;2022-11-20T07:35:44;18.13;;;17.23;;
15629;SDS011;7914;50.842;0.166;2022-11-20T07:38:10;18.37;;;17.47;;
15629;SDS011;7914;50.842;0.166;2022-11-20T07:40:36;18.50;;;17.60;;
15629;SDS011;7914;50.842;0.166;2022-11-20T07:43:01;18.27;;;17.37;;
15629;SDS011;7914;50.842;0.166;2022-11-20T07:45:27;18.37;;;17.47;;
15629;SDS011;7914;50.842;0.166;2022-11-20T07:47:53;18.60;;;17.70;;
15629;SDS011;7914;50.842;0.166;2022-11-20T07:50:19;18.33;;;17.43;;
15629;SDS011;7914;50.842;0.166;2022-11-20T07:52:44;18.30;;;17.40;;
15629;SDS011;7914;50.842;0.166;2022-11-20T07:55:10;19.07;;;18.17;;
15629;SDS011;7914;50.842;0.166;2022-11-20T07:57:36;17.53;;;16.73;;
15629;SDS011;7914;50.842;0.166;2022-11-20T08:00:03;17.37;;;16.57;;
15629;SDS011;7914;50.842;0.166;2022-11-20T08:02:30;18.70;;;17.80;;
15629;SDS011;7914;50.842;0.166;2022-11-20T08:04:55;17.67;;;16.87;;
15629;SDS011;7914;50.842;0.166;2022-11-20T08:07:21;17.47;;;16.67;;
15629;SDS011;7914;50.842;0.166;2022-11-20T08:09:47;17.13;;;16.33;;
15629;SDS011;7914;50.842;0.166;2022-11-20T08:12:19;17.20;;;16.40;;
15629;SDS011;7914;50.842;0.166;2022-11-20T08:15:04;17.60;;;16.80;;
15629;SDS011;7914;50.842;0.166;2022-11-20T08:17:30;17.13;;;16.33;;
15629;SDS011;7914;50.842;0.166;2022-11-20T08:19:56;16.97;;;16.17;;
15629;SDS011;7914;50.842;0.166;2022-11-20T08:22:22;16.30;;;15.50;;
15629;SDS011;7914;50.842;0.166;2022-11-20T08:24:48;16.60;;;15.80;;
15629;SDS011;7914;50.842;0.166;2022-11-20T08:27:14;16.50;;;15.70;;
15629;SDS011;7914;50.842;0.166;2022-11-20T08:29:39;17.70;;;16.90;;
15629;SDS011;7914;50.842;0.166;2022-11-20T08:32:05;16.70;;;15.90;;
15629;SDS011;7914;50.842;0.166;2022-11-20T08:34:31;16.43;;;15.63;;
15629;SDS011;7914;50.842;0.166;2022-11-20T08:36:56;15.83;;;15.13;;
15629;SDS011;7914;50.842;0.166;2022-11-20T08:39:22;16.27;;;15.57;;
15629;SDS011;7914;50.842;0.166;2022-11-20T08:41:48;13.77;;;13.17;;
15629;SDS011;7914;50.842;0.166;2022-11-20T08:44:13;14.30;;;13.70;;
15629;SDS011;7914;50.842;0.166;2022-11-20T08:46:40;14.63;;;14.03;;
15629;SDS011;7914;50.842;0.166;2022-11-20T08:49:10;14.80;;;14.10;;
15629;SDS011;7914;50.842;0.166;2022-11-20T08:51:37;14.53;;;13.93;;
15629;SDS011;7914;50.842;0.166;2022-11-20T08:54:04;13.20;;;12.60;;
15629;SDS011;7914;50.842;0.166;2022-11-20T08:56:30;14.00;;;13.40;;
15629;SDS011;7914;50.842;0.166;2022-11-20T08:58:56;14.67;;;14.03;;
15629;SDS011;7914;50.842;0.166;2022-11-20T09:01:22;15.00;;;14.30;;
15629;SDS011;7914;50.842;0.166;2022-11-20T09:03:48;14.10;;;13.50;;
15629;SDS011;7914;50.842;0.166;2022-11-20T09:06:14;14.27;;;13.67;;
15629;SDS011;7914;50.842;0.166;2022-11-20T09:08:40;14.70;;;14.07;;
15629;SDS011;7914;50.842;0.166;2022-11-20T09:11:06;14.40;;;13.80;;
15629;SDS011;7914;50.842;0.166;2022-11-20T09:13:33;14.47;;;13.87;;
15629;SDS011;7914;50.842;0.166;2022-11-20T09:16:00;13.77;;;13.17;;
15629;SDS011;7914;50.842;0.166;2022-11-20T09:18:28;13.37;;;12.77;;
15629;SDS011;7914;50.842;0.166;2022-11-20T09:21:00;12.60;;;12.10;;
15629;SDS011;7914;50.842;0.166;2022-11-20T09:23:27;11.73;;;11.23;;
15629;SDS011;7914;50.842;0.166;2022-11-20T09:25:56;12.60;;;12.10;;
15629;SDS011;7914;50.842;0.166;2022-11-20T09:28:25;11.50;;;11.00;;
15629;SDS011;7914;50.842;0.166;2022-11-20T09:30:51;10.77;;;10.33;;
15629;SDS011;7914;50.842;0.166;2022-11-20T09:33:17;10.33;;;9.93;;
15629;SDS011;7914;50.842;0.166;2022-11-20T09:35:43;9.70;;;9.30;;
15629;SDS011;7914;50.842;0.166;2022-11-20T09:38:09;9.53;;;9.13;;
15629;SDS011;7914;50.842;0.166;2022-11-20T09:40:37;8.87;;;8.47;;
15629;SDS011;7914;50.842;0.166;2022-11-20T09:43:19;8.90;;;8.50;;
15629;SDS011;7914;50.842;0.166;2022-11-20T09:56:24;8.50;;;8.20;;
15629;SDS011;7914;50.842;0.166;2022-11-20T09:58:51;7.80;;;7.50;;
15629;SDS011;7914;50.842;0.166;2022-11-20T10:01:21;7.23;;;6.93;;
15629;SDS011;7914;50.842;0.166;2022-11-20T10:06:37;7.23;;;6.93;;
15629;SDS011;7914;50.842;0.166;2022-11-20T10:09:29;6.30;;;6.10;;
15629;SDS011;7914;50.842;0.166;2022-11-20T10:12:06;5.80;;;5.60;;
15629;SDS011;7914;50.842;0.166;2022-11-20T10:14:57;5.40;;;5.20;;
15629;SDS011;7914;50.842;0.166;2022-11-20T10:17:31;4.80;;;4.60;;
15629;SDS011;7914;50.842;0.166;2022-11-20T10:20:25;4.30;;;4.10;;
15629;SDS011;7914;50.842;0.166;2022-11-20T10:31:56;3.50;;;3.40;;
15629;SDS011;7914;50.842;0.166;2022-11-20T10:34:28;3.43;;;3.33;;
15629;SDS011;7914;50.842;0.166;2022-11-20T10:37:18;3.17;;;3.07;;
15629;SDS011;7914;50.842;0.166;2022-11-20T10:43:13;3.70;;;3.60;;
15629;SDS011;7914;50.842;0.166;2022-11-20T10:45:58;3.47;;;3.37;;
15629;SDS011;7914;50.842;0.166;2022-11-20T10:48:32;3.70;;;3.60;;
15629;SDS011;7914;50.842;0.166;2022-11-20T10:56:41;4.10;;;4.00;;
15629;SDS011;7914;50.842;0.166;2022-11-20T11:01:41;3.27;;;3.17;;
15629;SDS011;7914;50.842;0.166;2022-11-20T11:06:48;3.30;;;3.20;;
15629;SDS011;7914;50.842;0.166;2022-11-20T11:09:18;2.90;;;2.80;;
15629;SDS011;7914;50.842;0.166;2022-11-20T11:11:49;2.93;;;2.83;;
15629;SDS011;7914;50.842;0.166;2022-11-20T11:14:15;2.17;;;2.07;;
15629;SDS011;7914;50.842;0.166;2022-11-20T11:16:52;2.30;;;2.20;;
15629;SDS011;7914;50.842;0.166;2022-11-20T11:19:19;2.03;;;1.93;;
15629;SDS011;7914;50.842;0.166;2022-11-20T11:21:46;2.10;;;2.00;;
15629;SDS011;7914;50.842;0.166;2022-11-20T11:24:24;1.70;;;1.70;;
15629;SDS011;7914;50.842;0.166;2022-11-20T11:26:51;1.60;;;1.60;;
15629;SDS011;7914;50.842;0.166;2022-11-20T11:29:24;1.83;;;1.83;;
15629;SDS011;7914;50.842;0.166;2022-11-20T11:32:07;1.30;;;1.30;;
15629;SDS011;7914;50.842;0.166;2022-11-20T11:34:37;1.58;;;1.58;;
15629;SDS011;7914;50.842;0.166;2022-11-20T11:37:02;1.80;;;1.80;;
15629;SDS011;7914;50.842;0.166;2022-11-20T11:39:31;1.60;;;1.60;;
15629;SDS011;7914;50.842;0.166;2022-11-20T11:41:58;1.73;;;1.73;;
15629;SDS011;7914;50.842;0.166;2022-11-20T11:44:33;1.60;;;1.60;;
15629;SDS011;7914;50.842;0.166;2022-11-20T11:47:22;1.50;;;1.50;;
15629;SDS011;7914;50.842;0.166;2022-11-20T11:58:41;1.30;;;1.30;;
15629;SDS011;7914;50.842;0.166;2022-11-20T12:03:42;1.50;;;1.50;;
15629;SDS011;7914;50.842;0.166;2022-11-20T12:06:15;1.60;;;1.60;;
15629;SDS011;7914;50.842;0.166;2022-11-20T12:08:49;1.80;;;1.80;;
15629;SDS011;7914;50.842;0.166;2022-11-20T12:11:29;1.80;;;1.80;;
15629;SDS011;7914;50.842;0.166;2022-11-20T12:14:16;1.30;;;1.30;;
15629;SDS011;7914;50.842;0.166;2022-11-20T12:17:02;1.20;;;1.20;;
15629;SDS011;7914;50.842;0.166;2022-11-20T12:19:29;1.67;;;1.67;;
15629;SDS011;7914;50.842;0.166;2022-11-20T12:39:02;1.13;;;1.13;;
15629;SDS011;7914;50.842;0.166;2022-11-20T12:59:10;1.23;;;1.23;;
15629;SDS011;7914;50.842;0.166;2022-11-20T13:07:35;1.00;;;1.00;;
15629;SDS011;7914;50.842;0.166;2022-11-20T13:10:01;0.83;;;0.83;;
15629;SDS011;7914;50.842;0.166;2022-11-20T13:15:07;1.00;;;1.00;;
15629;SDS011;7914;50.842;0.166;2022-11-20T13:17:55;1.10;;;1.10;;
15629;SDS011;7914;50.842;0.166;2022-11-20T13:20:24;0.87;;;0.87;;
15629;SDS011;7914;50.842;0.166;2022-11-20T13:22:53;0.80;;;0.80;;
15629;SDS011;7914;50.842;0.166;2022-11-20T13:25:25;0.60;;;0.60;;
15629;SDS011;7914;50.842;0.166;2022-11-20T13:28:46;0.77;;;0.77;;
15629;SDS011;7914;50.842;0.166;2022-11-20T13:30:50;0.80;;;0.80;;
15629;SDS011;7914;50.842;0.166;2022-11-20T13:36:07;0.70;;;0.70;;
15629;SDS011;7914;50.842;0.166;2022-11-20T13:38:47;0.70;;;0.70;;
15629;SDS011;7914;50.842;0.166;2022-11-20T13:41:29;0.80;;;0.80;;
15629;SDS011;7914;50.842;0.166;2022-11-20T13:44:09;0.80;;;0.80;;
15629;SDS011;7914;50.842;0.166;2022-11-20T13:46:40;0.90;;;0.90;;
15629;SDS011;7914;50.842;0.166;2022-11-20T13:49:16;0.80;;;0.80;;
15629;SDS011;7914;50.842;0.166;2022-11-20T13:51:47;0.80;;;0.80;;
15629;SDS011;7914;50.842;0.166;2022-11-20T13:54:27;0.80;;;0.80;;
15629;SDS011;7914;50.842;0.166;2022-11-20T13:59:58;0.80;;;0.80;;
15629;SDS011;7914;50.842;0.166;2022-11-20T14:02:51;0.80;;;0.80;;
15629;SDS011;7914;50.842;0.166;2022-11-20T14:05:51;0.80;;;0.80;;
15629;SDS011;7914;50.842;0.166;2022-11-20T14:16:26;0.70;;;0.70;;
15629;SDS011;7914;50.842;0.166;2022-11-20T14:18:53;0.90;;;0.90;;
15629;SDS011;7914;50.842;0.166;2022-11-20T14:21:21;0.90;;;0.90;;
15629;SDS011;7914;50.842;0.166;2022-11-20T14:24:07;0.87;;;0.87;;
15629;SDS011;7914;50.842;0.166;2022-11-20T14:26:36;0.83;;;0.83;;
15629;SDS011;7914;50.842;0.166;2022-11-20T14:29:11;0.90;;;0.90;;
15629;SDS011;7914;50.842;0.166;2022-11-20T14:31:51;0.80;;;0.80;;
15629;SDS011;7914;50.842;0.166;2022-11-20T14:34:19;0.80;;;0.80;;
15629;SDS011;7914;50.842;0.166;2022-11-20T14:36:48;0.80;;;0.80;;
15629;SDS011;7914;50.842;0.166;2022-11-20T14:39:21;0.90;;;0.90;;
15629;SDS011;7914;50.842;0.166;2022-11-20T14:41:51;0.87;;;0.87;;
15629;SDS011;7914;50.842;0.166;2022-11-20T14:44:18;1.00;;;1.00;;
15629;SDS011;7914;50.842;0.166;2022-11-20T14:46:48;0.90;;;0.90;;
15629;SDS011;7914;50.842;0.166;2022-11-20T14:49:15;0.80;;;0.80;;
15629;SDS011;7914;50.842;0.166;2022-11-20T14:51:41;0.80;;;0.80;;
15629;SDS011;7914;50.842;0.166;2022-11-20T14:54:20;0.80;;;0.80;;
15629;SDS011;7914;50.842;0.166;2022-11-20T14:56:56;0.90;;;0.90;;
15629;SDS011;7914;50.842;0.166;2022-11-20T14:59:24;0.90;;;0.90;;
15629;SDS011;7914;50.842;0.166;2022-11-20T15:02:01;0.73;;;0.73;;
15629;SDS011;7914;50.842;0.166;2022-11-20T15:04:46;1.00;;;1.00;;
15629;SDS011;7914;50.842;0.166;2022-11-20T15:07:23;0.93;;;0.93;;
15629;SDS011;7914;50.842;0.166;2022-11-20T15:10:09;0.90;;;0.90;;
15629;SDS011;7914;50.842;0.166;2022-11-20T15:12:38;0.90;;;0.90;;
15629;SDS011;7914;50.842;0.166;2022-11-20T15:15:10;0.73;;;0.73;;
15629;SDS011;7914;50.842;0.166;2022-11-20T15:17:39;0.80;;;0.80;;
15629;SDS011;7914;50.842;0.166;2022-11-20T15:20:11;1.00;;;1.00;;
15629;SDS011;7914;50.842;0.166;2022-11-20T15:22:40;1.00;;;1.00;;
15629;SDS011;7914;50.842;0.166;2022-11-20T15:25:13;0.87;;;0.87;;
15629;SDS011;7914;50.842;0.166;2022-11-20T15:27:40;1.10;;;1.10;;
15629;SDS011;7914;50.842;0.166;2022-11-20T15:30:16;0.90;;;0.90;;
15629;SDS011;7914;50.842;0.166;2022-11-20T15:32:44;1.10;;;1.10;;
15629;SDS011;7914;50.842;0.166;2022-11-20T15:35:11;0.90;;;0.90;;
15629;SDS011;7914;50.842;0.166;2022-11-20T15:37:37;1.10;;;1.10;;
15629;SDS011;7914;50.842;0.166;2022-11-20T15:40:04;1.10;;;1.10;;
15629;SDS011;7914;50.842;0.166;2022-11-20T15:42:31;1.03;;;1.03;;
15629;SDS011;7914;50.842;0.166;2022-11-20T15:44:57;1.00;;;1.00;;
15629;SDS011;7914;50.842;0.166;2022-11-20T15:47:33;0.90;;;0.90;;
15629;SDS011;7914;50.842;0.166;2022-11-20T15:50:00;1.03;;;1.03;;
15629;SDS011;7914;50.842;0.166;2022-11-20T15:52:26;1.00;;;1.00;;
15629;SDS011;7914;50.842;0.166;2022-11-20T15:54:52;1.00;;;1.00;;
15629;SDS011;7914;50.842;0.166;2022-11-20T15:57:17;1.10;;;1.10;;
15629;SDS011;7914;50.842;0.166;2022-11-20T15:59:44;1.00;;;1.00;;
15629;SDS011;7914;50.842;0.166;2022-11-20T16:02:13;1.00;;;1.00;;
15629;SDS011;7914;50.842;0.166;2022-11-20T16:04:39;1.10;;;1.10;;
15629;SDS011;7914;50.842;0.166;2022-11-20T16:07:06;1.03;;;1.03;;
15629;SDS011;7914;50.842;0.166;2022-11-20T16:09:31;0.90;;;0.90;;
15629;SDS011;7914;50.842;0.166;2022-11-20T16:11:57;1.00;;;1.00;;
15629;SDS011;7914;50.842;0.166;2022-11-20T16:14:24;1.00;;;1.00;;
15629;SDS011;7914;50.842;0.166;2022-11-20T16:17:09;1.10;;;1.10;;
15629;SDS011;7914;50.842;0.166;2022-11-20T16:19:35;1.20;;;1.20;;
15629;SDS011;7914;50.842;0.166;2022-11-20T16:22:01;1.00;;;1.00;;
15629;SDS011;7914;50.842;0.166;2022-11-20T16:24:26;0.93;;;0.93;;
15629;SDS011;7914;50.842;0.166;2022-11-20T16:26:53;0.80;;;0.80;;
15629;SDS011;7914;50.842;0.166;2022-11-20T16:29:19;0.80;;;0.80;;
15629;SDS011;7914;50.842;0.166;2022-11-20T16:31:45;0.80;;;0.80;;
15629;SDS011;7914;50.842;0.166;2022-11-20T16:34:10;0.80;;;0.80;;
15629;SDS011;7914;50.842;0.166;2022-11-20T16:36:38;0.60;;;0.60;;
15629;SDS011;7914;50.842;0.166;2022-11-20T16:39:05;0.90;;;0.90;;
15629;SDS011;7914;50.842;0.166;2022-11-20T16:41:32;0.90;;;0.90;;
15629;SDS011;7914;50.842;0.166;2022-11-20T16:44:00;0.80;;;0.80;;
15629;SDS011;7914;50.842;0.166;2022-11-20T16:46:28;0.87;;;0.87;;
15629;SDS011;7914;50.842;0.166;2022-11-20T16:48:59;0.73;;;0.73;;
15629;SDS011;7914;50.842;0.166;2022-11-20T16:51:30;0.90;;;0.90;;
15629;SDS011;7914;50.842;0.166;2022-11-20T16:54:00;1.00;;;1.00;;